createdAt,value
2022-10-14T00:01:24.674Z,45.13
2022-10-14T00:03:53.335Z,47.33
2022-10-14T00:06:32.381Z,46.13
2022-10-14T00:09:09.567Z,44.97
2022-10-14T00:11:38.245Z,46.67
2022-10-14T00:14:14.238Z,42.28
2022-10-14T00:16:45.733Z,44.45
2022-10-14T00:19:14.646Z,43.50
2022-10-14T00:21:45.653Z,42.05
2022-10-14T00:24:16.723Z,40.45
2022-10-14T00:26:45.374Z,43.42
2022-10-14T00:29:18.846Z,42.50
2022-10-14T00:31:47.113Z,43.28
2022-10-14T00:34:16.090Z,44.42
2022-10-14T00:36:44.677Z,46.20
2022-10-14T00:39:12.240Z,45.22
2022-10-14T00:41:40.225Z,46.05
2022-10-14T00:44:13.066Z,44.95
2022-10-14T00:46:48.155Z,44.50
2022-10-14T00:49:25.034Z,45.58
2022-10-14T00:52:04.028Z,42.08
2022-10-14T00:54:41.731Z,41.80
2022-10-14T00:57:11.433Z,43.20
2022-10-14T00:59:39.405Z,43.47
2022-10-14T01:02:06.738Z,42.65
2022-10-14T01:04:38.365Z,42.72
2022-10-14T01:07:53.127Z,42.97
2022-10-14T01:10:50.767Z,40.65
2022-10-14T01:13:34.771Z,38.85
2022-10-14T01:16:36.901Z,42.53
2022-10-14T01:19:43.490Z,42.92
2022-10-14T01:22:56.997Z,41.33
2022-10-14T01:25:58.945Z,40.75
2022-10-14T01:28:34.549Z,50.95
2022-10-14T01:31:12.242Z,42.55
2022-10-14T01:33:46.181Z,44.83
2022-10-14T01:36:34.372Z,46.05
2022-10-14T01:39:20.140Z,45.80
2022-10-14T01:41:57.487Z,50.13
2022-10-14T01:44:30.365Z,73.60
2022-10-14T01:47:02.188Z,56.28
2022-10-14T01:49:46.037Z,47.97
2022-10-14T01:52:27.558Z,49.33
2022-10-14T01:55:03.208Z,56.58
2022-10-14T01:57:38.442Z,90.40
2022-10-14T02:00:06.973Z,56.72
2022-10-14T02:02:38.474Z,51.50
2022-10-14T02:06:08.251Z,54.35
2022-10-14T02:09:02.570Z,51.22
2022-10-14T02:12:15.679Z,55.45
2022-10-14T02:15:03.028Z,51.35
2022-10-14T02:18:09.858Z,53.28
2022-10-14T02:21:22.995Z,56.50
2022-10-14T02:24:07.515Z,55.72
2022-10-14T02:29:06.422Z,53.55
2022-10-14T02:31:41.034Z,54.90
2022-10-14T02:34:21.592Z,55.00
2022-10-14T02:36:50.693Z,55.72
2022-10-14T02:39:31.241Z,55.63
2022-10-14T02:41:58.647Z,59.38
2022-10-14T02:44:28.537Z,62.47
2022-10-14T02:46:59.469Z,57.20
2022-10-14T02:49:26.616Z,59.58
2022-10-14T02:51:53.519Z,56.25
2022-10-14T02:54:20.507Z,61.70
2022-10-14T02:56:47.253Z,58.58
2022-10-14T02:59:14.375Z,59.83
2022-10-14T03:01:41.148Z,55.35
2022-10-14T03:04:08.011Z,58.20
2022-10-14T03:06:37.957Z,57.42
2022-10-14T03:09:04.751Z,58.78
2022-10-14T03:11:31.591Z,56.60
2022-10-14T03:13:58.422Z,57.13
2022-10-14T03:16:28.056Z,59.00
2022-10-14T03:18:57.996Z,56.10
2022-10-14T03:21:24.823Z,61.15
2022-10-14T03:23:52.661Z,56.45
2022-10-14T03:26:19.667Z,55.92
2022-10-14T03:28:49.594Z,55.50
2022-10-14T03:31:16.644Z,57.17
2022-10-14T03:33:49.006Z,57.03
2022-10-14T03:36:15.787Z,56.47
2022-10-14T03:38:42.592Z,57.13
2022-10-14T03:41:09.342Z,54.53
2022-10-14T03:43:36.240Z,55.08
2022-10-14T03:46:03.024Z,55.80
2022-10-14T03:48:29.709Z,54.92
2022-10-14T03:50:56.649Z,51.70
2022-10-14T03:53:23.348Z,53.10
2022-10-14T03:55:50.094Z,54.20
2022-10-14T03:58:19.856Z,54.15
2022-10-14T04:00:52.104Z,52.33
2022-10-14T04:03:18.917Z,52.15
2022-10-14T04:05:45.951Z,51.22
2022-10-14T04:08:12.847Z,53.05
2022-10-14T04:10:39.809Z,51.80
2022-10-14T04:13:06.633Z,53.67
2022-10-14T04:15:36.540Z,55.83
2022-10-14T04:18:06.147Z,54.05
2022-10-14T04:20:33.514Z,50.70
2022-10-14T04:23:00.740Z,51.72
2022-10-14T04:25:29.863Z,51.65
2022-10-14T04:27:56.816Z,49.92
2022-10-14T04:30:23.637Z,50.88
2022-10-14T04:32:53.553Z,52.75
2022-10-14T04:35:20.363Z,48.00
2022-10-14T04:37:47.666Z,49.40
2022-10-14T04:40:14.690Z,51.40
2022-10-14T04:42:42.629Z,53.95
2022-10-14T04:45:10.176Z,51.95
2022-10-14T04:47:36.981Z,49.80
2022-10-14T05:33:13.002Z,47.03
2022-10-14T05:43:44.954Z,42.13
2022-10-14T05:49:05.593Z,42.72
2022-10-14T05:51:33.660Z,41.78
2022-10-14T05:54:00.501Z,43.50
2022-10-14T05:56:27.533Z,41.15
2022-10-14T06:07:03.288Z,42.25
2022-10-14T06:20:17.472Z,41.35
2022-10-14T07:35:43.329Z,43.95
2022-10-14T07:38:10.527Z,41.63
2022-10-14T07:40:37.252Z,44.75
2022-10-14T07:43:03.983Z,42.60
2022-10-14T07:45:35.314Z,43.80
2022-10-14T07:48:02.588Z,47.05
2022-10-14T07:50:29.861Z,44.72
2022-10-14T07:53:00.892Z,46.15
2022-10-14T07:55:30.970Z,46.13
2022-10-14T07:57:58.305Z,44.67
2022-10-14T08:00:27.998Z,43.70
2022-10-14T08:02:54.740Z,45.75
2022-10-14T08:05:38.556Z,46.58
2022-10-14T08:08:06.760Z,46.67
2022-10-14T08:10:33.900Z,43.17
2022-10-14T08:13:00.735Z,40.58
2022-10-14T08:15:29.901Z,39.67
2022-10-14T08:17:57.205Z,42.30
2022-10-14T08:20:23.843Z,42.08
2022-10-14T08:22:50.791Z,42.40
2022-10-14T08:25:17.716Z,41.03
2022-10-14T08:27:46.201Z,37.72
2022-10-14T08:30:13.040Z,38.47
2022-10-14T08:32:39.794Z,41.05
2022-10-14T08:35:07.976Z,40.85
2022-10-14T08:37:34.863Z,39.95
2022-10-14T08:40:05.848Z,38.78
2022-10-14T08:45:56.300Z,38.03
2022-10-14T08:48:34.367Z,37.33
2022-10-14T08:51:13.396Z,35.38
2022-10-14T08:53:57.303Z,35.08
2022-10-14T08:56:24.659Z,36.78
2022-10-14T08:59:14.195Z,35.78
2022-10-14T09:01:56.919Z,34.17
2022-10-14T09:04:23.875Z,32.65
2022-10-14T09:06:55.194Z,35.33
2022-10-14T09:09:43.568Z,33.95
2022-10-14T09:12:21.734Z,34.05
2022-10-14T09:15:25.285Z,33.58
2022-10-14T09:18:55.598Z,33.33
2022-10-14T09:21:51.694Z,33.53
2022-10-14T09:24:36.234Z,34.08
2022-10-14T09:27:21.994Z,36.90
2022-10-14T09:29:57.274Z,35.08
2022-10-14T09:32:36.516Z,33.58
2022-10-14T09:35:17.852Z,33.00
2022-10-14T09:37:46.895Z,36.38
2022-10-14T09:40:44.170Z,37.80
2022-10-14T09:43:10.721Z,37.75
2022-10-14T09:46:01.940Z,35.70
2022-10-14T09:48:53.722Z,37.05
2022-10-14T09:51:32.641Z,35.97
2022-10-14T09:54:05.391Z,35.92
2022-10-14T09:56:42.739Z,34.67
2022-10-14T09:59:23.058Z,32.05
2022-10-14T10:02:00.510Z,33.45
2022-10-14T10:04:47.050Z,32.38
2022-10-14T10:07:34.334Z,34.20
2022-10-14T10:10:38.559Z,33.78
2022-10-14T10:13:22.873Z,32.23
2022-10-14T10:16:00.957Z,31.17
2022-10-14T10:18:28.766Z,29.63
2022-10-14T10:21:16.979Z,28.13
2022-10-14T10:24:01.680Z,28.58
2022-10-14T10:26:33.861Z,27.85
2022-10-14T10:29:05.613Z,28.63
2022-10-14T10:32:01.516Z,27.70
2022-10-14T10:34:58.816Z,24.65
2022-10-14T10:37:38.801Z,24.13
2022-10-14T10:40:34.605Z,25.35
2022-10-14T10:43:33.949Z,25.98
2022-10-14T10:47:02.511Z,24.10
2022-10-14T10:50:15.798Z,22.15
2022-10-14T10:53:14.216Z,23.45
2022-10-14T10:56:05.984Z,22.77
2022-10-14T10:58:55.086Z,24.23
2022-10-14T11:02:04.753Z,24.88
2022-10-14T11:04:52.857Z,23.90
2022-10-14T11:08:04.416Z,23.55
2022-10-14T11:11:29.355Z,25.25
2022-10-14T11:14:25.295Z,23.70
2022-10-14T11:17:27.650Z,23.95
2022-10-14T11:20:05.455Z,23.10
2022-10-14T11:23:07.581Z,24.27
2022-10-14T11:26:13.676Z,23.13
2022-10-14T11:28:49.610Z,23.98
2022-10-14T11:31:52.856Z,23.83
2022-10-14T11:34:51.777Z,25.58
2022-10-14T11:38:24.156Z,23.88
2022-10-14T11:41:32.006Z,22.48
2022-10-14T11:44:21.532Z,23.30
2022-10-14T11:46:58.359Z,22.38
2022-10-14T11:50:15.877Z,22.00
2022-10-14T11:52:55.278Z,22.60
2022-10-14T11:55:29.099Z,23.02
2022-10-14T11:58:23.137Z,21.83
2022-10-14T12:01:16.722Z,21.15
2022-10-14T12:04:19.872Z,21.52
2022-10-14T12:07:06.697Z,21.80
2022-10-14T12:09:48.283Z,23.27
2022-10-14T12:12:23.347Z,22.23
2022-10-14T12:15:01.162Z,21.23
2022-10-14T12:17:53.207Z,20.55
2022-10-14T12:20:53.715Z,18.92
2022-10-14T12:23:48.819Z,20.10
2022-10-14T12:26:24.474Z,19.63
2022-10-14T12:28:54.275Z,21.30
2022-10-14T12:31:39.503Z,21.88
2022-10-14T12:34:14.882Z,21.88
2022-10-14T12:36:50.855Z,20.83
2022-10-14T12:39:17.577Z,23.42
2022-10-14T12:42:11.043Z,21.80
2022-10-14T12:44:57.509Z,22.23
2022-10-14T12:47:36.439Z,22.23
2022-10-14T12:50:25.483Z,22.35
2022-10-14T12:53:05.698Z,22.65
2022-10-14T12:55:50.554Z,23.15
2022-10-14T12:58:37.254Z,25.63
2022-10-14T13:01:16.655Z,23.38
2022-10-14T13:04:08.281Z,26.38
2022-10-14T13:06:43.009Z,24.52
2022-10-14T13:09:12.936Z,27.63
2022-10-14T13:12:09.165Z,24.27
2022-10-14T13:15:34.771Z,26.13
2022-10-14T13:19:03.090Z,24.10
2022-10-14T13:21:36.293Z,26.58
2022-10-14T13:24:17.989Z,27.33
2022-10-14T13:26:55.225Z,24.40
2022-10-14T13:29:54.529Z,27.10
2022-10-14T13:32:57.719Z,26.67
2022-10-14T13:35:51.729Z,25.38
2022-10-14T13:38:23.953Z,25.70
2022-10-14T13:40:58.100Z,25.63
2022-10-14T13:46:22.678Z,24.17
2022-10-14T13:48:59.541Z,23.98
2022-10-14T13:52:04.451Z,23.17
2022-10-14T13:54:32.391Z,23.00
2022-10-14T13:57:53.596Z,23.33
2022-10-14T14:00:42.251Z,23.65
2022-10-14T14:03:38.777Z,23.38
2022-10-14T14:06:19.696Z,24.65
2022-10-14T14:09:04.450Z,23.92
2022-10-14T14:11:37.546Z,21.27
2022-10-14T14:14:35.745Z,21.25
2022-10-14T14:17:12.527Z,21.58
2022-10-14T14:19:48.668Z,21.25
2022-10-14T14:22:30.624Z,23.42
2022-10-14T14:25:36.068Z,21.20
2022-10-14T14:28:08.302Z,23.15
2022-10-14T14:30:39.039Z,21.27
2022-10-14T14:33:24.228Z,21.00
2022-10-14T14:36:12.056Z,20.30
2022-10-14T14:39:02.523Z,20.97
2022-10-14T14:44:24.587Z,21.83
2022-10-14T14:46:57.222Z,22.35
2022-10-14T14:49:35.260Z,22.40
2022-10-14T14:52:03.779Z,22.40
2022-10-14T14:54:31.225Z,24.45
2022-10-14T14:57:00.995Z,22.15
2022-10-14T14:59:36.785Z,21.35
2022-10-14T15:02:16.780Z,21.20
2022-10-14T15:04:44.697Z,20.88
2022-10-14T15:07:21.275Z,18.25
2022-10-14T15:10:04.350Z,17.67
2022-10-14T15:12:41.799Z,17.45
2022-10-14T15:15:34.591Z,18.02
2022-10-14T15:18:21.453Z,18.55
2022-10-14T15:20:49.451Z,16.33
2022-10-14T15:23:42.938Z,17.67
2022-10-14T15:26:27.877Z,16.90
2022-10-14T15:32:01.765Z,17.30
2022-10-14T15:34:29.140Z,17.77
2022-10-14T15:36:56.761Z,18.20
2022-10-14T15:39:25.684Z,17.58
2022-10-14T15:41:52.463Z,17.40
2022-10-14T15:44:19.222Z,17.42
2022-10-14T15:47:05.953Z,17.35
2022-10-14T15:49:42.856Z,18.30
2022-10-14T15:52:20.569Z,16.65
2022-10-14T15:54:50.613Z,18.95
2022-10-14T15:57:17.553Z,18.83
2022-10-14T15:59:44.260Z,19.00
2022-10-14T16:02:23.314Z,21.38
2022-10-14T16:05:15.063Z,18.55
2022-10-14T16:07:40.002Z,19.52
2022-10-14T16:10:11.612Z,19.67
2022-10-14T16:12:38.469Z,19.23
2022-10-14T16:15:28.235Z,19.38
2022-10-14T16:17:54.942Z,17.65
2022-10-14T16:20:22.563Z,19.67
2022-10-14T16:22:50.749Z,18.67
2022-10-14T16:25:33.550Z,19.58
2022-10-14T16:28:00.596Z,18.27
2022-10-14T16:30:28.104Z,20.50
2022-10-14T16:32:55.594Z,18.05
2022-10-14T16:35:22.215Z,16.80
2022-10-14T16:37:49.031Z,18.30
2022-10-14T16:40:16.147Z,20.35
2022-10-14T16:42:42.839Z,19.10
2022-10-14T16:45:10.663Z,18.98
2022-10-14T16:47:38.165Z,19.85
2022-10-14T16:50:07.495Z,19.20
2022-10-14T16:52:54.846Z,19.95
2022-10-14T16:55:25.392Z,19.77
2022-10-14T16:57:52.180Z,22.95
2022-10-14T17:02:52.555Z,25.25
2022-10-14T17:05:19.233Z,27.90
2022-10-14T17:07:49.194Z,25.88
2022-10-14T17:10:16.323Z,25.95
2022-10-14T17:12:43.206Z,25.33
2022-10-14T17:15:10.759Z,24.95
2022-10-14T17:17:38.957Z,25.95
2022-10-14T17:20:10.078Z,24.55
2022-10-14T17:22:36.882Z,23.25
2022-10-14T17:46:47.221Z,22.20
2022-10-14T17:49:15.949Z,22.52
2022-10-14T18:10:33.398Z,19.52
2022-10-14T18:13:00.574Z,20.95
2022-10-14T18:45:10.985Z,18.10
2022-10-14T18:47:40.338Z,17.17
2022-10-14T19:11:48.802Z,19.25
2022-10-14T19:25:02.692Z,18.70
2022-10-14T19:32:52.200Z,19.48
2022-10-14T19:43:25.358Z,18.05
2022-10-14T19:59:18.186Z,18.55
2022-10-14T20:01:44.901Z,16.00
2022-10-14T20:04:12.199Z,17.40
2022-10-14T20:06:40.184Z,18.00
2022-10-14T20:09:08.978Z,16.67
2022-10-14T20:11:35.917Z,15.18
2022-10-14T20:14:02.613Z,17.00
2022-10-14T20:16:29.349Z,14.45
2022-10-14T20:18:56.497Z,15.15
2022-10-14T20:21:30.467Z,15.55
2022-10-14T20:23:59.186Z,15.45
2022-10-14T20:28:54.356Z,16.10
2022-10-14T20:31:25.354Z,14.95
2022-10-14T20:33:52.469Z,14.57
2022-10-14T20:36:22.022Z,14.68
2022-10-14T20:38:50.557Z,15.27
2022-10-14T20:41:31.889Z,15.30
2022-10-14T20:43:58.660Z,14.63
2022-10-14T20:46:25.409Z,13.77
2022-10-14T20:49:01.665Z,12.57
2022-10-14T20:51:31.651Z,13.07
2022-10-14T20:54:05.050Z,12.73
2022-10-14T20:56:35.720Z,12.60
2022-10-14T20:59:13.247Z,12.52
2022-10-14T21:01:40.114Z,11.77
2022-10-14T21:04:07.997Z,12.88
2022-10-14T21:06:39.016Z,12.93
2022-10-14T21:09:08.496Z,12.70
2022-10-14T21:11:41.553Z,13.45
2022-10-14T21:14:58.241Z,14.02
2022-10-14T21:17:25.133Z,12.45
2022-10-14T21:20:00.568Z,13.52
2022-10-14T21:22:27.415Z,13.65
2022-10-14T21:24:57.099Z,14.95
2022-10-14T21:27:24.166Z,16.45
2022-10-14T21:32:43.190Z,14.95
2022-10-14T21:35:09.921Z,15.45
2022-10-14T21:37:36.707Z,15.98
2022-10-14T21:40:24.605Z,16.60
2022-10-14T21:42:54.428Z,14.98
2022-10-14T21:45:52.608Z,17.48
2022-10-14T21:48:19.848Z,17.98
2022-10-14T21:51:18.713Z,16.58
2022-10-14T21:53:54.604Z,18.35
2022-10-14T21:56:22.594Z,18.45
2022-10-14T21:58:49.646Z,19.90
2022-10-14T22:01:28.089Z,19.38
2022-10-14T22:04:03.754Z,18.35
2022-10-14T22:06:34.500Z,18.55
2022-10-14T22:09:06.946Z,18.33
2022-10-14T22:11:40.228Z,19.27
2022-10-14T22:14:14.088Z,18.67
2022-10-14T22:16:41.063Z,18.55
2022-10-14T22:19:11.182Z,19.92
2022-10-14T22:22:53.128Z,20.48
2022-10-14T22:28:42.737Z,19.90
2022-10-14T22:31:51.894Z,21.50
2022-10-14T22:34:25.455Z,20.48
2022-10-14T22:36:58.970Z,19.90
2022-10-14T22:40:09.386Z,18.83
2022-10-14T22:42:37.966Z,19.30
2022-10-14T22:45:08.196Z,19.15
2022-10-14T22:47:35.074Z,18.70
2022-10-14T22:50:01.917Z,18.98
2022-10-14T22:53:27.619Z,18.80
2022-10-14T22:56:23.347Z,19.20
2022-10-14T22:59:27.535Z,17.77
2022-10-14T23:02:12.532Z,18.35
2022-10-14T23:04:39.243Z,18.50
2022-10-14T23:07:13.609Z,19.55
2022-10-14T23:09:40.390Z,20.00
2022-10-14T23:12:10.268Z,18.15
2022-10-14T23:14:37.049Z,18.42
2022-10-14T23:17:04.033Z,18.38
2022-10-14T23:19:30.811Z,19.40
2022-10-14T23:22:04.036Z,18.30
2022-10-14T23:24:30.870Z,17.88
2022-10-14T23:27:00.652Z,19.65
2022-10-14T23:29:27.426Z,19.17
2022-10-14T23:31:54.083Z,19.20
2022-10-14T23:34:20.891Z,19.65
2022-10-14T23:36:47.707Z,20.27
2022-10-14T23:39:15.872Z,19.20
2022-10-14T23:41:54.675Z,20.67
2022-10-14T23:44:23.948Z,20.90
2022-10-14T23:46:50.792Z,19.58
2022-10-14T23:49:26.340Z,19.35
2022-10-14T23:52:33.546Z,19.88
2022-10-14T23:55:00.400Z,19.70
2022-10-14T23:57:27.311Z,20.80
2022-10-14T23:59:54.320Z,21.52
